createdAt,value
2022-09-15T00:01:32.751Z,97178.59
2022-09-15T00:04:36.048Z,97179.00
2022-09-15T00:07:40.752Z,97166.97
2022-09-15T00:10:49.228Z,97177.06
2022-09-15T00:13:53.383Z,97163.69
2022-09-15T00:16:56.523Z,97163.50
2022-09-15T00:19:59.660Z,97162.84
2022-09-15T00:23:04.251Z,97160.25
2022-09-15T00:26:08.882Z,97159.88
2022-09-15T00:29:12.238Z,97153.00
2022-09-15T00:32:15.328Z,97158.09
2022-09-15T00:35:18.775Z,97153.19
2022-09-15T00:38:23.340Z,97161.00
2022-09-15T00:41:27.081Z,97157.06
2022-09-15T00:44:58.640Z,97160.22
2022-09-15T00:48:02.565Z,97153.75
2022-09-15T00:51:08.479Z,97041.59
2022-09-15T00:54:17.659Z,97143.16
2022-09-15T00:57:25.832Z,97150.69
2022-09-15T01:00:29.862Z,97140.25
2022-09-15T01:03:35.519Z,97147.16
2022-09-15T01:06:43.654Z,97149.28
2022-09-15T01:09:53.706Z,97111.34
2022-09-15T01:13:00.147Z,97144.31
2022-09-15T01:16:11.360Z,97137.31
2022-09-15T01:19:51.511Z,97142.34
2022-09-15T01:23:09.346Z,97118.38
2022-09-15T01:26:35.356Z,97133.28
2022-09-15T01:30:04.242Z,97126.13
2022-09-15T01:33:22.396Z,97131.31
2022-09-15T01:36:34.284Z,97127.63
2022-09-15T01:39:41.031Z,97123.94
2022-09-15T01:42:46.463Z,97127.06
2022-09-15T01:45:53.557Z,97130.94
2022-09-15T01:49:00.562Z,97131.88
2022-09-15T01:52:04.083Z,97123.97
2022-09-15T01:55:13.888Z,97126.84
2022-09-15T01:58:16.994Z,97128.59
2022-09-15T02:01:29.746Z,97122.75
2022-09-15T02:04:36.587Z,97106.28
2022-09-15T02:07:47.760Z,97120.94
2022-09-15T02:10:59.288Z,97102.63
2022-09-15T02:14:10.495Z,97110.41
2022-09-15T02:17:18.800Z,97114.47
2022-09-15T02:20:31.666Z,97107.16
2022-09-15T02:23:41.823Z,97105.53
2022-09-15T02:26:47.111Z,97109.53
2022-09-15T02:29:52.638Z,97101.50
2022-09-15T02:33:02.742Z,97090.72
2022-09-15T02:36:07.040Z,97100.94
2022-09-15T02:39:14.180Z,97107.34
2022-09-15T02:42:25.432Z,97098.34
2022-09-15T02:45:31.036Z,97091.50
2022-09-15T02:48:36.086Z,97085.03
2022-09-15T02:51:39.168Z,97083.94
2022-09-15T02:54:42.391Z,97086.81
2022-09-15T02:57:45.472Z,97089.56
2022-09-15T03:00:52.031Z,97089.63
2022-09-15T03:03:56.887Z,97085.69
2022-09-15T03:07:00.134Z,97079.03
2022-09-15T03:10:03.202Z,97075.69
2022-09-15T03:13:06.367Z,97089.16
2022-09-15T03:16:10.424Z,97082.63
2022-09-15T03:19:15.149Z,97077.59
2022-09-15T03:22:18.717Z,97083.69
2022-09-15T03:25:22.112Z,97083.16
2022-09-15T03:28:25.326Z,97079.88
2022-09-15T03:34:14.527Z,97088.00
2022-09-15T03:37:18.040Z,97068.63
2022-09-15T03:40:21.205Z,97075.50
2022-09-15T03:43:24.632Z,97071.97
2022-09-15T03:46:27.900Z,97075.66
2022-09-15T03:49:32.614Z,97083.09
2022-09-15T03:52:35.770Z,97084.03
2022-09-15T03:55:39.074Z,97082.41
2022-09-15T03:58:42.205Z,97075.75
2022-09-15T04:01:45.798Z,97079.34
2022-09-15T04:04:50.408Z,97080.75
2022-09-15T04:07:53.558Z,97073.84
2022-09-15T04:10:56.680Z,97069.03
2022-09-15T04:13:59.856Z,97070.69
2022-09-15T04:17:03.111Z,97073.44
2022-09-15T04:20:09.061Z,97047.25
2022-09-15T04:23:12.268Z,97059.25
2022-09-15T04:26:22.163Z,97014.03
2022-09-15T04:29:25.803Z,97050.03
2022-09-15T04:32:30.277Z,97066.44
2022-09-15T04:35:34.770Z,97067.22
2022-09-15T04:38:38.744Z,97063.63
2022-09-15T04:41:41.813Z,97069.97
2022-09-15T04:44:44.989Z,97066.13
2022-09-15T04:47:48.416Z,97063.38
2022-09-15T04:50:53.230Z,97060.16
2022-09-15T04:53:56.409Z,97036.00
2022-09-15T04:56:59.560Z,97062.09
2022-09-15T05:00:06.052Z,97065.38
2022-09-15T05:03:09.305Z,97063.19
2022-09-15T05:06:16.823Z,97061.22
2022-09-15T05:09:19.923Z,97047.28
2022-09-15T05:12:23.148Z,97053.66
2022-09-15T05:15:26.606Z,97056.53
2022-09-15T05:18:29.736Z,97057.47
2022-09-15T05:21:35.104Z,97053.38
2022-09-15T05:24:38.380Z,97063.84
2022-09-15T05:27:41.585Z,97062.19
2022-09-15T05:30:44.804Z,97065.78
2022-09-15T05:33:49.415Z,97060.53
2022-09-15T05:36:54.169Z,97069.91
2022-09-15T05:39:59.562Z,97062.50
2022-09-15T05:43:02.719Z,97063.56
2022-09-15T05:46:07.560Z,97067.16
2022-09-15T05:49:11.705Z,97058.63
2022-09-15T05:52:16.308Z,97067.47
2022-09-15T05:55:19.500Z,97066.38
2022-09-15T05:58:23.366Z,97064.19
2022-09-15T06:01:31.261Z,97065.56
2022-09-15T06:04:34.782Z,97059.53
2022-09-15T06:07:40.002Z,97022.28
2022-09-15T06:10:43.710Z,97065.28
2022-09-15T06:13:48.380Z,97056.47
2022-09-15T06:16:51.442Z,97065.44
2022-09-15T06:19:54.938Z,97055.78
2022-09-15T06:23:01.441Z,96994.56
2022-09-15T06:26:07.009Z,97024.81
2022-09-15T06:29:13.251Z,97042.72
2022-09-15T06:32:16.514Z,97036.97
2022-09-15T06:35:19.934Z,97062.03
2022-09-15T06:38:24.411Z,97070.88
2022-09-15T06:41:47.074Z,97071.88
2022-09-15T06:44:54.480Z,97083.69
2022-09-15T06:48:20.120Z,97088.25
2022-09-15T06:51:23.215Z,97096.38
2022-09-15T06:54:27.880Z,97088.78
2022-09-15T06:57:33.428Z,97094.00
2022-09-15T07:00:36.550Z,97098.16
2022-09-15T07:03:41.958Z,97100.47
2022-09-15T07:06:45.997Z,97111.84
2022-09-15T07:09:50.668Z,97078.00
2022-09-15T07:12:54.093Z,97120.94
2022-09-15T07:15:59.773Z,97142.97
2022-09-15T07:19:03.874Z,97165.78
2022-09-15T07:22:07.173Z,97148.06
2022-09-15T07:25:11.859Z,97128.00
2022-09-15T07:28:15.952Z,97106.78
2022-09-15T07:31:21.940Z,97172.09
2022-09-15T07:34:25.365Z,97176.97
2022-09-15T07:37:28.866Z,97180.84
2022-09-15T07:40:34.119Z,97191.78
2022-09-15T07:43:37.494Z,97213.69
2022-09-15T07:46:40.600Z,97200.31
2022-09-15T07:49:43.857Z,97202.72
2022-09-15T07:52:46.944Z,97211.22
2022-09-15T07:55:54.743Z,97199.63
2022-09-15T07:58:57.708Z,97205.66
2022-09-15T08:02:00.705Z,97202.22
2022-09-15T08:05:04.878Z,97213.81
2022-09-15T08:08:12.658Z,97221.91
2022-09-15T08:11:22.005Z,97225.59
2022-09-15T08:14:28.379Z,97229.19
2022-09-15T08:17:32.429Z,97203.31
2022-09-15T08:20:35.815Z,97227.84
2022-09-15T08:23:39.312Z,97230.06
2022-09-15T08:26:43.872Z,97244.94
2022-09-15T08:29:47.066Z,97230.41
2022-09-15T08:32:50.294Z,97232.81
2022-09-15T08:35:53.457Z,97226.81
2022-09-15T08:38:56.669Z,97232.44
2022-09-15T08:42:03.425Z,97241.47
2022-09-15T08:45:15.927Z,97264.59
2022-09-15T08:48:26.785Z,97277.97
2022-09-15T08:51:35.891Z,97294.31
2022-09-15T08:54:39.963Z,97300.03
2022-09-15T08:57:45.024Z,97302.22
2022-09-15T09:00:51.757Z,97290.88
2022-09-15T09:04:21.227Z,97292.75
2022-09-15T09:07:45.205Z,97298.03
2022-09-15T09:10:53.421Z,97303.47
2022-09-15T09:14:07.590Z,97290.19
2022-09-15T09:17:25.855Z,97298.38
2022-09-15T09:20:44.293Z,97286.69
2022-09-15T09:23:54.557Z,97301.13
2022-09-15T09:26:58.051Z,97310.00
2022-09-15T09:34:24.039Z,97283.78
2022-09-15T09:37:27.936Z,97300.09
2022-09-15T09:40:32.858Z,97311.63
2022-09-15T09:43:36.205Z,97310.16
2022-09-15T09:46:39.498Z,97313.97
2022-09-15T09:49:47.901Z,97315.66
2022-09-15T09:52:51.113Z,97310.44
2022-09-15T09:55:55.106Z,97302.41
2022-09-15T09:58:58.317Z,97313.56
2022-09-15T10:02:24.733Z,97303.59
2022-09-15T10:05:29.268Z,97317.94
2022-09-15T10:08:33.077Z,97317.34
2022-09-15T10:11:46.671Z,97312.47
2022-09-15T10:14:53.048Z,97316.09
2022-09-15T10:17:57.763Z,97314.22
2022-09-15T10:21:04.498Z,97279.03
2022-09-15T10:24:31.317Z,97293.69
2022-09-15T10:27:36.880Z,97274.41
2022-09-15T10:30:40.730Z,97273.75
2022-09-15T10:33:45.558Z,97277.78
2022-09-15T10:36:50.614Z,97282.13
2022-09-15T10:39:55.832Z,97281.41
2022-09-15T10:43:06.870Z,97276.00
2022-09-15T10:46:14.742Z,97265.09
2022-09-15T10:49:33.227Z,97258.13
2022-09-15T10:52:50.298Z,97256.06
2022-09-15T10:56:03.821Z,97238.63
2022-09-15T10:59:27.575Z,97248.16
2022-09-15T11:03:09.718Z,97240.91
2022-09-15T11:06:23.163Z,97256.44
2022-09-15T11:09:34.624Z,97245.44
2022-09-15T11:12:54.661Z,97262.38
2022-09-15T11:16:09.124Z,97246.75
2022-09-15T11:19:27.591Z,97257.88
2022-09-15T11:22:34.287Z,97282.56
2022-09-15T11:25:43.643Z,97283.31
2022-09-15T11:28:53.733Z,97291.41
2022-09-15T11:32:04.152Z,97300.72
2022-09-15T11:35:29.912Z,97289.06
2022-09-15T11:38:42.881Z,97294.84
2022-09-15T11:41:56.317Z,97298.03
2022-09-15T11:45:01.595Z,97304.16
2022-09-15T11:48:13.592Z,97308.84
2022-09-15T11:51:19.980Z,97323.00
2022-09-15T11:54:31.568Z,97327.09
2022-09-15T11:57:43.988Z,97326.09
2022-09-15T12:00:55.553Z,97334.03
2022-09-15T12:04:02.422Z,97329.03
2022-09-15T12:07:13.717Z,97330.81
2022-09-15T12:10:22.554Z,97328.28
2022-09-15T12:13:27.403Z,97338.41
2022-09-15T12:16:31.227Z,97334.47
2022-09-15T12:19:51.986Z,97318.56
2022-09-15T12:23:01.159Z,97318.34
2022-09-15T12:26:14.718Z,97315.72
2022-09-15T12:29:41.881Z,97320.03
2022-09-15T12:32:45.740Z,97316.22
2022-09-15T12:35:50.688Z,97300.59
2022-09-15T12:38:53.875Z,97276.50
2022-09-15T12:42:07.370Z,97293.72
2022-09-15T12:45:24.115Z,97309.50
2022-09-15T12:48:29.843Z,97291.97
2022-09-15T12:51:33.570Z,97321.81
2022-09-15T12:54:39.631Z,97323.13
2022-09-15T12:57:43.070Z,97330.22
2022-09-15T13:01:14.235Z,97325.50
2022-09-15T13:04:49.726Z,97321.09
2022-09-15T13:07:58.761Z,97326.31
2022-09-15T13:11:05.639Z,97306.97
2022-09-15T13:14:17.639Z,97311.72
2022-09-15T13:17:26.482Z,97325.03
2022-09-15T13:20:34.997Z,97306.25
2022-09-15T13:23:42.031Z,97325.69
2022-09-15T13:26:48.376Z,97316.34
2022-09-15T13:30:11.353Z,97313.16
2022-09-15T13:41:06.599Z,97310.88
2022-09-15T13:44:29.418Z,97285.13
2022-09-15T13:47:39.324Z,97291.50
2022-09-15T13:50:55.703Z,97267.25
2022-09-15T13:54:03.781Z,97262.41
2022-09-15T13:57:07.155Z,97237.31
2022-09-15T14:00:20.809Z,97216.97
2022-09-15T14:03:36.814Z,97213.31
2022-09-15T14:06:43.826Z,97217.34
2022-09-15T14:09:47.850Z,97225.56
2022-09-15T14:12:52.626Z,97221.25
2022-09-15T14:16:01.097Z,97211.97
2022-09-15T14:19:22.687Z,97203.81
2022-09-15T14:22:30.068Z,97218.75
2022-09-15T14:25:33.937Z,97223.09
2022-09-15T14:28:37.161Z,97227.00
2022-09-15T14:31:41.934Z,97243.44
2022-09-15T14:37:58.009Z,97235.22
2022-09-15T14:41:01.724Z,97255.31
2022-09-15T14:48:01.208Z,97258.91
2022-09-15T14:51:11.946Z,97213.72
2022-09-15T14:54:20.786Z,97262.28
2022-09-15T14:57:30.626Z,97283.84
2022-09-15T15:00:38.458Z,97294.66
2022-09-15T15:03:46.801Z,97276.25
2022-09-15T15:06:57.955Z,97292.59
2022-09-15T15:10:04.971Z,97275.81
2022-09-15T15:13:12.817Z,97275.81
2022-09-15T15:16:20.313Z,97289.53
2022-09-15T15:19:34.800Z,97290.53
2022-09-15T15:22:39.814Z,97283.31
2022-09-15T15:25:46.915Z,97282.06
2022-09-15T15:28:50.198Z,97286.34
2022-09-15T15:34:25.021Z,97286.25
2022-09-15T15:37:30.821Z,97294.28
2022-09-15T15:40:34.625Z,97292.38
2022-09-15T15:43:38.172Z,97251.50
2022-09-15T15:46:50.503Z,97270.56
2022-09-15T15:50:12.811Z,97245.75
2022-09-15T15:53:16.364Z,97236.25
2022-09-15T15:56:25.479Z,97274.72
2022-09-15T15:59:28.912Z,97278.84
2022-09-15T16:02:32.036Z,97290.34
2022-09-15T16:05:37.391Z,97302.56
2022-09-15T16:08:43.741Z,97307.84
2022-09-15T16:11:46.931Z,97313.78
2022-09-15T16:14:50.396Z,97320.44
2022-09-15T16:17:53.574Z,97305.34
2022-09-15T16:20:57.984Z,97310.31
2022-09-15T16:24:01.149Z,97308.56
2022-09-15T16:27:06.287Z,97300.69
2022-09-15T16:30:12.019Z,97291.06
2022-09-15T16:33:16.134Z,97299.13
2022-09-15T16:36:20.550Z,97303.09
2022-09-15T16:39:23.769Z,97301.94
2022-09-15T16:42:26.937Z,97317.41
2022-09-15T16:45:38.055Z,97319.28
2022-09-15T16:48:47.065Z,97283.34
2022-09-15T16:51:51.611Z,97302.53
2022-09-15T16:54:57.772Z,97304.59
2022-09-15T16:58:00.967Z,97311.47
2022-09-15T17:01:04.682Z,97314.66
2022-09-15T17:04:13.664Z,97326.19
2022-09-15T17:07:18.355Z,97318.84
2022-09-15T17:10:21.994Z,97326.81
2022-09-15T17:13:29.497Z,97320.16
2022-09-15T17:16:33.819Z,97329.75
2022-09-15T17:19:36.976Z,97337.16
2022-09-15T17:22:41.671Z,97319.09
2022-09-15T17:25:49.057Z,97369.63
2022-09-15T17:28:52.506Z,97358.53
2022-09-15T17:31:55.860Z,97364.56
2022-09-15T17:34:59.102Z,97362.81
2022-09-15T17:38:05.030Z,97378.41
2022-09-15T17:41:08.346Z,97366.53
2022-09-15T17:44:11.836Z,97379.31
2022-09-15T17:47:14.927Z,97381.03
2022-09-15T17:50:19.748Z,97386.78
2022-09-15T17:53:26.649Z,97398.72
2022-09-15T17:56:29.923Z,97387.84
2022-09-15T17:59:33.201Z,97395.09
2022-09-15T18:02:36.679Z,97408.91
2022-09-15T18:05:39.839Z,97411.47
2022-09-15T18:08:44.479Z,97435.34
2022-09-15T18:11:47.578Z,97425.13
2022-09-15T18:14:51.011Z,97429.81
2022-09-15T18:17:56.823Z,97444.50
2022-09-15T18:21:00.114Z,97447.59
2022-09-15T18:24:05.103Z,97455.81
2022-09-15T18:27:08.330Z,97460.38
2022-09-15T18:30:12.898Z,97474.25
2022-09-15T18:33:17.596Z,97471.66
2022-09-15T18:36:20.752Z,97474.97
2022-09-15T18:39:25.595Z,97484.78
2022-09-15T18:42:31.793Z,97497.06
2022-09-15T18:45:35.522Z,97500.00
2022-09-15T18:48:38.716Z,97501.84
2022-09-15T18:51:51.626Z,97497.19
2022-09-15T18:54:56.402Z,97510.59
2022-09-15T18:58:01.166Z,97515.31
2022-09-15T19:01:04.805Z,97516.50
2022-09-15T19:04:07.927Z,97525.81
2022-09-15T19:07:12.220Z,97519.84
2022-09-15T19:10:18.372Z,97530.44
2022-09-15T19:13:21.507Z,97524.13
2022-09-15T19:16:34.676Z,97537.59
2022-09-15T19:19:46.269Z,97545.47
2022-09-15T19:22:51.482Z,97529.16
2022-09-15T19:25:55.911Z,97531.63
2022-09-15T19:28:59.093Z,97531.59
2022-09-15T19:32:02.871Z,97532.84
2022-09-15T19:35:06.855Z,97519.75
2022-09-15T19:38:10.143Z,97542.84
2022-09-15T19:41:17.777Z,97544.25
2022-09-15T19:44:20.871Z,97540.09
2022-09-15T19:47:24.368Z,97546.66
2022-09-15T19:50:27.510Z,97551.47
2022-09-15T19:53:30.614Z,97552.94
2022-09-15T19:56:35.448Z,97548.41
2022-09-15T19:59:38.699Z,97534.97
2022-09-15T20:02:41.868Z,97543.75
2022-09-15T20:05:50.509Z,97545.44
2022-09-15T20:08:54.676Z,97536.41
2022-09-15T20:12:02.987Z,97541.09
2022-09-15T20:15:07.188Z,97534.69
2022-09-15T20:18:12.495Z,97525.06
2022-09-15T20:21:32.644Z,97538.66
2022-09-15T20:24:41.352Z,97560.66
2022-09-15T20:27:47.650Z,97562.78
2022-09-15T20:31:00.184Z,97547.13
2022-09-15T20:34:03.383Z,97566.59
2022-09-15T20:37:07.074Z,97563.84
2022-09-15T20:40:10.514Z,97568.00
2022-09-15T20:43:15.176Z,97549.59
2022-09-15T20:46:20.002Z,97552.19
2022-09-15T20:49:23.308Z,97557.97
2022-09-15T20:52:29.492Z,97549.50
2022-09-15T20:55:33.126Z,97547.28
2022-09-15T20:58:38.456Z,97550.59
2022-09-15T21:01:41.911Z,97546.91
2022-09-15T21:04:44.980Z,97541.94
2022-09-15T21:07:48.812Z,97549.72
2022-09-15T21:10:53.644Z,97549.06
2022-09-15T21:13:58.859Z,97557.69
2022-09-15T21:17:02.106Z,97557.47
2022-09-15T21:20:05.911Z,97559.34
2022-09-15T21:23:09.023Z,97537.47
2022-09-15T21:26:14.757Z,97533.03
2022-09-15T21:29:19.211Z,97554.28
2022-09-15T21:34:14.197Z,97560.56
2022-09-15T21:37:17.297Z,97572.06
2022-09-15T21:40:20.578Z,97568.28
2022-09-15T21:43:23.786Z,97570.88
2022-09-15T21:46:28.643Z,97570.78
2022-09-15T21:49:33.594Z,97566.03
2022-09-15T21:52:37.077Z,97570.13
2022-09-15T21:55:40.237Z,97574.97
2022-09-15T21:58:44.251Z,97574.75
2022-09-15T22:01:48.565Z,97573.22
2022-09-15T22:04:53.754Z,97577.66
2022-09-15T22:08:00.463Z,97583.84
2022-09-15T22:11:08.479Z,97576.50
2022-09-15T22:14:14.243Z,97557.38
2022-09-15T22:17:17.556Z,97575.91
2022-09-15T22:20:22.423Z,97581.28
2022-09-15T22:23:25.897Z,97572.91
2022-09-15T22:26:32.432Z,97583.28
2022-09-15T22:29:35.531Z,97571.44
2022-09-15T22:32:39.141Z,97577.19
2022-09-15T22:35:48.982Z,97576.72
2022-09-15T22:38:52.637Z,97575.16
2022-09-15T22:41:55.749Z,97572.53
2022-09-15T22:44:59.259Z,97582.00
2022-09-15T22:48:02.750Z,97564.94
2022-09-15T22:51:07.448Z,97579.59
2022-09-15T22:54:12.864Z,97571.31
2022-09-15T22:57:15.975Z,97572.25
2022-09-15T23:00:20.183Z,97556.22
2022-09-15T23:03:23.301Z,97569.22
2022-09-15T23:06:30.597Z,97576.16
2022-09-15T23:09:34.260Z,97575.31
2022-09-15T23:12:37.558Z,97569.16
2022-09-15T23:15:40.710Z,97566.44
2022-09-15T23:18:44.160Z,97568.41
2022-09-15T23:21:48.970Z,97562.91
2022-09-15T23:24:52.064Z,97564.25
2022-09-15T23:27:55.217Z,97570.59
2022-09-15T23:30:59.564Z,97567.44
2022-09-15T23:34:02.750Z,97568.53
2022-09-15T23:37:07.302Z,97575.72
2022-09-15T23:40:11.248Z,97563.63
2022-09-15T23:43:16.068Z,97575.50
2022-09-15T23:46:19.135Z,97590.25
2022-09-15T23:49:22.353Z,97581.25
2022-09-15T23:52:26.814Z,97579.94
2022-09-15T23:55:30.204Z,97579.81
2022-09-15T23:58:33.318Z,97574.47
